sensor_id;sensor_type;location;lat;lon;timestamp;pressure;altitude;pressure_sealevel;temperature;humidity
29359;BME280;16347;53.232;6.556;2024-01-30T00:01:28;102598.56;;;10.35;67.34
29359;BME280;16347;53.232;6.556;2024-01-30T00:03:58;102601.66;;;10.30;67.62
29359;BME280;16347;53.232;6.556;2024-01-30T00:06:26;102594.78;;;10.24;67.29
29359;BME280;16347;53.232;6.556;2024-01-30T00:08:55;102597.09;;;10.31;67.24
29359;BME280;16347;53.232;6.556;2024-01-30T00:11:23;102590.41;;;10.35;67.23
29359;BME280;16347;53.232;6.556;2024-01-30T00:13:52;102589.25;;;10.26;67.32
29359;BME280;16347;53.232;6.556;2024-01-30T00:16:20;102585.56;;;10.27;67.79
29359;BME280;16347;53.232;6.556;2024-01-30T00:18:48;102582.06;;;10.25;67.91
29359;BME280;16347;53.232;6.556;2024-01-30T00:21:17;102578.63;;;10.23;67.78
29359;BME280;16347;53.232;6.556;2024-01-30T00:23:45;102584.94;;;10.23;68.02
29359;BME280;16347;53.232;6.556;2024-01-30T00:26:14;102574.03;;;10.11;68.21
29359;BME280;16347;53.232;6.556;2024-01-30T00:28:42;102579.19;;;10.15;67.96
29359;BME280;16347;53.232;6.556;2024-01-30T00:31:10;102578.63;;;10.10;68.42
29359;BME280;16347;53.232;6.556;2024-01-30T00:33:39;102568.72;;;10.09;68.91
29359;BME280;16347;53.232;6.556;2024-01-30T00:36:08;102572.97;;;10.13;68.41
29359;BME280;16347;53.232;6.556;2024-01-30T00:38:39;102561.22;;;10.13;68.74
29359;BME280;16347;53.232;6.556;2024-01-30T00:41:08;102570.25;;;10.01;69.35
29359;BME280;16347;53.232;6.556;2024-01-30T00:43:36;102569.28;;;10.02;69.42
29359;BME280;16347;53.232;6.556;2024-01-30T00:46:04;102563.06;;;10.12;68.83
29359;BME280;16347;53.232;6.556;2024-01-30T00:48:33;102558.16;;;10.17;69.23
29359;BME280;16347;53.232;6.556;2024-01-30T00:51:00;102553.31;;;10.10;69.19
29359;BME280;16347;53.232;6.556;2024-01-30T00:53:28;102549.28;;;10.15;68.99
29359;BME280;16347;53.232;6.556;2024-01-30T00:55:58;102541.25;;;10.14;69.14
29359;BME280;16347;53.232;6.556;2024-01-30T00:58:25;102544.03;;;10.12;68.75
29359;BME280;16347;53.232;6.556;2024-01-30T01:00:53;102538.06;;;10.20;68.57
29359;BME280;16347;53.232;6.556;2024-01-30T01:03:22;102540.16;;;10.16;69.14
29359;BME280;16347;53.232;6.556;2024-01-30T01:05:50;102546.22;;;10.07;69.11
29359;BME280;16347;53.232;6.556;2024-01-30T01:08:18;102542.53;;;10.08;68.89
29359;BME280;16347;53.232;6.556;2024-01-30T01:10:46;102538.69;;;10.11;69.52
29359;BME280;16347;53.232;6.556;2024-01-30T01:13:16;102542.97;;;10.15;69.30
29359;BME280;16347;53.232;6.556;2024-01-30T01:15:44;102541.72;;;9.95;69.37
29359;BME280;16347;53.232;6.556;2024-01-30T01:18:12;102544.66;;;9.92;69.74
29359;BME280;16347;53.232;6.556;2024-01-30T01:20:40;102540.97;;;9.93;69.86
29359;BME280;16347;53.232;6.556;2024-01-30T01:23:08;102545.63;;;9.91;70.38
29359;BME280;16347;53.232;6.556;2024-01-30T01:25:36;102548.94;;;9.84;70.39
29359;BME280;16347;53.232;6.556;2024-01-30T01:28:05;102541.44;;;9.74;70.75
29359;BME280;16347;53.232;6.556;2024-01-30T01:30:34;102545.16;;;9.73;70.95
29359;BME280;16347;53.232;6.556;2024-01-30T01:33:02;102538.44;;;9.66;71.54
29359;BME280;16347;53.232;6.556;2024-01-30T01:35:30;102540.78;;;9.71;71.21
29359;BME280;16347;53.232;6.556;2024-01-30T01:37:59;102537.41;;;9.67;71.62
29359;BME280;16347;53.232;6.556;2024-01-30T01:40:27;102534.84;;;9.66;71.55
29359;BME280;16347;53.232;6.556;2024-01-30T01:42:55;102538.84;;;9.73;71.10
29359;BME280;16347;53.232;6.556;2024-01-30T01:45:23;102543.50;;;9.71;71.67
29359;BME280;16347;53.232;6.556;2024-01-30T01:47:53;102542.09;;;9.65;71.42
29359;BME280;16347;53.232;6.556;2024-01-30T01:50:22;102541.69;;;9.59;71.49
29359;BME280;16347;53.232;6.556;2024-01-30T01:52:52;102534.59;;;9.69;71.90
29359;BME280;16347;53.232;6.556;2024-01-30T01:55:21;102531.03;;;9.68;71.96
29359;BME280;16347;53.232;6.556;2024-01-30T01:57:52;102533.97;;;9.65;71.75
29359;BME280;16347;53.232;6.556;2024-01-30T02:00:21;102528.84;;;9.73;71.41
29359;BME280;16347;53.232;6.556;2024-01-30T02:02:50;102532.66;;;9.58;71.79
29359;BME280;16347;53.232;6.556;2024-01-30T02:05:22;102522.44;;;9.62;72.15
29359;BME280;16347;53.232;6.556;2024-01-30T02:07:51;102520.19;;;9.56;72.39
29359;BME280;16347;53.232;6.556;2024-01-30T02:10:20;102512.03;;;9.56;72.42
29359;BME280;16347;53.232;6.556;2024-01-30T02:12:48;102515.41;;;9.59;72.57
29359;BME280;16347;53.232;6.556;2024-01-30T02:15:17;102508.00;;;9.61;72.42
29359;BME280;16347;53.232;6.556;2024-01-30T02:17:45;102511.69;;;9.60;72.00
29359;BME280;16347;53.232;6.556;2024-01-30T02:20:13;102502.69;;;9.60;72.16
29359;BME280;16347;53.232;6.556;2024-01-30T02:22:43;102503.25;;;9.52;72.40
29359;BME280;16347;53.232;6.556;2024-01-30T02:25:11;102494.56;;;9.60;72.17
29359;BME280;16347;53.232;6.556;2024-01-30T02:27:39;102489.13;;;9.60;72.44
29359;BME280;16347;53.232;6.556;2024-01-30T02:30:08;102481.50;;;9.65;72.41
29359;BME280;16347;53.232;6.556;2024-01-30T02:32:35;102491.78;;;9.72;72.20
29359;BME280;16347;53.232;6.556;2024-01-30T02:35:04;102491.03;;;9.70;71.87
29359;BME280;16347;53.232;6.556;2024-01-30T02:37:32;102490.19;;;9.70;72.02
29359;BME280;16347;53.232;6.556;2024-01-30T02:40:01;102506.47;;;9.70;71.97
29359;BME280;16347;53.232;6.556;2024-01-30T02:42:30;102495.34;;;9.49;72.37
29359;BME280;16347;53.232;6.556;2024-01-30T02:44:58;102486.50;;;9.58;72.49
29359;BME280;16347;53.232;6.556;2024-01-30T02:47:26;102486.63;;;9.57;72.72
29359;BME280;16347;53.232;6.556;2024-01-30T02:49:54;102487.78;;;9.65;71.97
29359;BME280;16347;53.232;6.556;2024-01-30T02:52:22;102487.59;;;9.56;72.56
29359;BME280;16347;53.232;6.556;2024-01-30T02:54:50;102479.22;;;9.59;72.54
29359;BME280;16347;53.232;6.556;2024-01-30T02:57:20;102475.41;;;9.61;72.30
29359;BME280;16347;53.232;6.556;2024-01-30T02:59:48;102471.31;;;9.56;72.66
29359;BME280;16347;53.232;6.556;2024-01-30T03:02:16;102463.53;;;9.39;73.15
29359;BME280;16347;53.232;6.556;2024-01-30T03:04:44;102468.22;;;9.37;73.75
29359;BME280;16347;53.232;6.556;2024-01-30T03:07:12;102467.13;;;9.39;73.55
29359;BME280;16347;53.232;6.556;2024-01-30T03:09:41;102456.59;;;9.35;73.61
29359;BME280;16347;53.232;6.556;2024-01-30T03:12:10;102459.44;;;9.33;73.79
29359;BME280;16347;53.232;6.556;2024-01-30T03:14:40;102454.69;;;9.48;73.67
29359;BME280;16347;53.232;6.556;2024-01-30T03:17:08;102458.28;;;9.48;73.12
29359;BME280;16347;53.232;6.556;2024-01-30T03:19:36;102460.78;;;9.51;73.06
29359;BME280;16347;53.232;6.556;2024-01-30T03:22:04;102468.28;;;9.48;73.10
29359;BME280;16347;53.232;6.556;2024-01-30T03:24:32;102463.84;;;9.47;73.47
29359;BME280;16347;53.232;6.556;2024-01-30T03:27:00;102458.84;;;9.53;73.26
29359;BME280;16347;53.232;6.556;2024-01-30T03:29:28;102455.91;;;9.56;72.65
29359;BME280;16347;53.232;6.556;2024-01-30T03:31:58;102447.47;;;9.36;73.72
29359;BME280;16347;53.232;6.556;2024-01-30T03:34:26;102447.44;;;9.48;73.46
29359;BME280;16347;53.232;6.556;2024-01-30T03:36:54;102447.19;;;9.51;73.56
29359;BME280;16347;53.232;6.556;2024-01-30T03:39:24;102437.34;;;9.38;73.74
29359;BME280;16347;53.232;6.556;2024-01-30T03:41:52;102438.63;;;9.45;73.38
29359;BME280;16347;53.232;6.556;2024-01-30T03:44:20;102443.91;;;9.22;74.03
29359;BME280;16347;53.232;6.556;2024-01-30T03:46:47;102432.16;;;9.35;74.37
29359;BME280;16347;53.232;6.556;2024-01-30T03:49:17;102429.56;;;9.33;74.23
29359;BME280;16347;53.232;6.556;2024-01-30T03:51:46;102426.53;;;9.25;74.07
29359;BME280;16347;53.232;6.556;2024-01-30T03:54:15;102407.44;;;9.26;74.54
29359;BME280;16347;53.232;6.556;2024-01-30T03:56:43;102399.06;;;9.30;74.49
29359;BME280;16347;53.232;6.556;2024-01-30T03:59:12;102393.22;;;9.23;74.71
29359;BME280;16347;53.232;6.556;2024-01-30T04:01:39;102381.13;;;9.27;74.67
29359;BME280;16347;53.232;6.556;2024-01-30T04:04:08;102375.69;;;9.40;73.95
29359;BME280;16347;53.232;6.556;2024-01-30T04:06:37;102380.25;;;9.39;73.53
29359;BME280;16347;53.232;6.556;2024-01-30T04:09:06;102400.97;;;9.40;73.52
29359;BME280;16347;53.232;6.556;2024-01-30T04:11:34;102411.16;;;9.49;73.09
29359;BME280;16347;53.232;6.556;2024-01-30T04:14:02;102405.09;;;9.46;73.26
29359;BME280;16347;53.232;6.556;2024-01-30T04:16:30;102424.97;;;9.46;73.46
29359;BME280;16347;53.232;6.556;2024-01-30T04:18:58;102408.31;;;9.51;73.46
29359;BME280;16347;53.232;6.556;2024-01-30T04:21:27;102401.13;;;9.62;73.11
29359;BME280;16347;53.232;6.556;2024-01-30T04:23:56;102402.00;;;9.50;73.25
29359;BME280;16347;53.232;6.556;2024-01-30T04:26:24;102387.59;;;9.50;73.75
29359;BME280;16347;53.232;6.556;2024-01-30T04:28:53;102395.59;;;9.51;73.64
29359;BME280;16347;53.232;6.556;2024-01-30T04:31:21;102387.13;;;9.56;74.03
29359;BME280;16347;53.232;6.556;2024-01-30T04:33:49;102403.84;;;9.62;73.40
29359;BME280;16347;53.232;6.556;2024-01-30T04:36:17;102405.50;;;9.52;73.11
29359;BME280;16347;53.232;6.556;2024-01-30T04:38:45;102418.19;;;9.52;73.57
29359;BME280;16347;53.232;6.556;2024-01-30T04:41:15;102428.25;;;9.39;73.80
29359;BME280;16347;53.232;6.556;2024-01-30T04:43:42;102413.31;;;9.57;73.70
29359;BME280;16347;53.232;6.556;2024-01-30T04:46:11;102401.09;;;9.39;74.11
29359;BME280;16347;53.232;6.556;2024-01-30T04:48:39;102395.44;;;9.42;74.32
29359;BME280;16347;53.232;6.556;2024-01-30T04:51:08;102403.91;;;9.37;74.46
29359;BME280;16347;53.232;6.556;2024-01-30T04:53:36;102387.19;;;9.31;74.73
29359;BME280;16347;53.232;6.556;2024-01-30T04:56:06;102386.13;;;9.33;74.71
29359;BME280;16347;53.232;6.556;2024-01-30T04:58:37;102382.59;;;9.44;74.18
29359;BME280;16347;53.232;6.556;2024-01-30T05:01:05;102380.75;;;9.44;74.21
29359;BME280;16347;53.232;6.556;2024-01-30T05:03:34;102376.28;;;9.56;74.01
29359;BME280;16347;53.232;6.556;2024-01-30T05:06:02;102366.72;;;9.50;73.79
29359;BME280;16347;53.232;6.556;2024-01-30T05:08:31;102377.13;;;9.56;73.54
29359;BME280;16347;53.232;6.556;2024-01-30T05:11:00;102364.47;;;9.44;73.72
29359;BME280;16347;53.232;6.556;2024-01-30T05:13:30;102365.28;;;9.57;73.36
29359;BME280;16347;53.232;6.556;2024-01-30T05:16:01;102374.69;;;9.64;73.73
29359;BME280;16347;53.232;6.556;2024-01-30T05:18:31;102365.91;;;9.61;73.81
29359;BME280;16347;53.232;6.556;2024-01-30T05:20:59;102367.31;;;9.66;73.38
29359;BME280;16347;53.232;6.556;2024-01-30T05:23:28;102363.34;;;9.59;73.38
29359;BME280;16347;53.232;6.556;2024-01-30T05:25:55;102362.75;;;9.67;73.61
29359;BME280;16347;53.232;6.556;2024-01-30T05:28:23;102356.91;;;9.60;73.33
29359;BME280;16347;53.232;6.556;2024-01-30T05:30:52;102349.38;;;9.64;73.63
29359;BME280;16347;53.232;6.556;2024-01-30T05:33:22;102357.94;;;9.70;73.14
29359;BME280;16347;53.232;6.556;2024-01-30T05:35:50;102344.25;;;9.72;73.04
29359;BME280;16347;53.232;6.556;2024-01-30T05:38:21;102334.34;;;9.71;73.01
29359;BME280;16347;53.232;6.556;2024-01-30T05:40:49;102351.03;;;9.66;73.08
29359;BME280;16347;53.232;6.556;2024-01-30T05:43:18;102324.50;;;9.70;73.14
29359;BME280;16347;53.232;6.556;2024-01-30T05:45:46;102328.69;;;9.74;73.09
29359;BME280;16347;53.232;6.556;2024-01-30T05:48:14;102330.19;;;9.78;72.79
29359;BME280;16347;53.232;6.556;2024-01-30T05:50:43;102346.81;;;9.62;72.82
29359;BME280;16347;53.232;6.556;2024-01-30T05:53:12;102362.53;;;9.70;72.66
29359;BME280;16347;53.232;6.556;2024-01-30T05:55:40;102365.41;;;9.56;73.19
29359;BME280;16347;53.232;6.556;2024-01-30T05:58:08;102369.56;;;9.49;73.59
29359;BME280;16347;53.232;6.556;2024-01-30T06:00:37;102357.84;;;9.48;73.19
29359;BME280;16347;53.232;6.556;2024-01-30T06:03:05;102369.78;;;9.46;73.20
29359;BME280;16347;53.232;6.556;2024-01-30T06:05:33;102370.72;;;9.21;74.06
29359;BME280;16347;53.232;6.556;2024-01-30T06:08:04;102375.69;;;9.27;74.21
29359;BME280;16347;53.232;6.556;2024-01-30T06:10:33;102371.00;;;9.42;73.72
29359;BME280;16347;53.232;6.556;2024-01-30T06:13:01;102360.28;;;9.27;73.68
29359;BME280;16347;53.232;6.556;2024-01-30T06:15:30;102362.53;;;9.46;73.39
29359;BME280;16347;53.232;6.556;2024-01-30T06:17:59;102364.00;;;9.50;73.06
29359;BME280;16347;53.232;6.556;2024-01-30T06:20:27;102363.41;;;9.47;73.42
29359;BME280;16347;53.232;6.556;2024-01-30T06:22:56;102369.78;;;9.46;73.42
29359;BME280;16347;53.232;6.556;2024-01-30T06:25:25;102361.09;;;9.41;73.45
29359;BME280;16347;53.232;6.556;2024-01-30T06:27:54;102357.97;;;9.47;73.33
29359;BME280;16347;53.232;6.556;2024-01-30T06:30:22;102346.66;;;9.40;73.30
29359;BME280;16347;53.232;6.556;2024-01-30T06:32:50;102350.38;;;9.39;73.61
29359;BME280;16347;53.232;6.556;2024-01-30T06:35:19;102333.97;;;9.41;73.72
29359;BME280;16347;53.232;6.556;2024-01-30T06:37:48;102335.47;;;9.45;73.34
29359;BME280;16347;53.232;6.556;2024-01-30T06:40:16;102330.81;;;9.47;73.53
29359;BME280;16347;53.232;6.556;2024-01-30T06:42:47;102336.75;;;9.52;73.47
29359;BME280;16347;53.232;6.556;2024-01-30T06:45:15;102335.16;;;9.60;72.94
29359;BME280;16347;53.232;6.556;2024-01-30T06:47:43;102347.78;;;9.38;73.32
29359;BME280;16347;53.232;6.556;2024-01-30T06:50:12;102336.50;;;9.31;73.84
29359;BME280;16347;53.232;6.556;2024-01-30T06:52:40;102328.09;;;9.47;73.42
29359;BME280;16347;53.232;6.556;2024-01-30T06:55:09;102341.84;;;9.56;73.40
29359;BME280;16347;53.232;6.556;2024-01-30T06:57:37;102344.91;;;9.52;73.32
29359;BME280;16347;53.232;6.556;2024-01-30T07:00:07;102336.41;;;9.56;72.95
29359;BME280;16347;53.232;6.556;2024-01-30T07:02:37;102350.09;;;9.55;73.20
29359;BME280;16347;53.232;6.556;2024-01-30T07:05:06;102327.97;;;9.48;73.47
29359;BME280;16347;53.232;6.556;2024-01-30T07:07:34;102331.66;;;9.47;73.55
29359;BME280;16347;53.232;6.556;2024-01-30T07:10:03;102336.25;;;9.47;73.55
29359;BME280;16347;53.232;6.556;2024-01-30T07:12:32;102329.72;;;9.49;73.89
29359;BME280;16347;53.232;6.556;2024-01-30T07:15:00;102332.28;;;9.51;73.78
29359;BME280;16347;53.232;6.556;2024-01-30T07:17:30;102316.41;;;9.57;73.83
29359;BME280;16347;53.232;6.556;2024-01-30T07:19:58;102311.03;;;9.45;73.78
29359;BME280;16347;53.232;6.556;2024-01-30T07:22:26;102316.63;;;9.54;73.83
29359;BME280;16347;53.232;6.556;2024-01-30T07:24:55;102331.84;;;9.57;74.01
29359;BME280;16347;53.232;6.556;2024-01-30T07:27:23;102335.31;;;9.59;73.90
29359;BME280;16347;53.232;6.556;2024-01-30T07:29:51;102339.22;;;9.55;73.88
29359;BME280;16347;53.232;6.556;2024-01-30T07:32:19;102340.41;;;9.40;74.11
29359;BME280;16347;53.232;6.556;2024-01-30T07:34:48;102337.06;;;9.60;73.85
29359;BME280;16347;53.232;6.556;2024-01-30T07:37:32;102341.94;;;9.55;74.04
29359;BME280;16347;53.232;6.556;2024-01-30T07:40:01;102345.28;;;9.58;74.15
29359;BME280;16347;53.232;6.556;2024-01-30T07:42:30;102346.03;;;9.60;74.48
29359;BME280;16347;53.232;6.556;2024-01-30T07:44:58;102352.00;;;9.42;74.72
29359;BME280;16347;53.232;6.556;2024-01-30T07:47:26;102349.44;;;9.51;74.60
29359;BME280;16347;53.232;6.556;2024-01-30T07:49:56;102344.91;;;9.52;74.41
29359;BME280;16347;53.232;6.556;2024-01-30T07:52:24;102340.19;;;9.54;74.82
29359;BME280;16347;53.232;6.556;2024-01-30T07:54:52;102348.34;;;9.54;74.71
29359;BME280;16347;53.232;6.556;2024-01-30T07:57:20;102354.56;;;9.56;74.70
29359;BME280;16347;53.232;6.556;2024-01-30T07:59:48;102344.25;;;9.72;74.33
29359;BME280;16347;53.232;6.556;2024-01-30T08:02:16;102350.56;;;9.72;74.20
29359;BME280;16347;53.232;6.556;2024-01-30T08:04:45;102361.03;;;9.66;74.07
29359;BME280;16347;53.232;6.556;2024-01-30T08:07:17;102360.31;;;9.75;74.04
29359;BME280;16347;53.232;6.556;2024-01-30T08:09:45;102362.56;;;9.57;74.96
29359;BME280;16347;53.232;6.556;2024-01-30T08:12:13;102367.72;;;9.73;75.01
29359;BME280;16347;53.232;6.556;2024-01-30T08:14:41;102355.25;;;9.47;75.22
29359;BME280;16347;53.232;6.556;2024-01-30T08:17:09;102357.91;;;9.59;75.66
29359;BME280;16347;53.232;6.556;2024-01-30T08:19:37;102364.47;;;9.68;74.64
29359;BME280;16347;53.232;6.556;2024-01-30T08:22:05;102353.13;;;9.74;74.61
29359;BME280;16347;53.232;6.556;2024-01-30T08:24:35;102368.28;;;9.65;74.58
29359;BME280;16347;53.232;6.556;2024-01-30T08:27:03;102363.59;;;9.67;75.11
29359;BME280;16347;53.232;6.556;2024-01-30T08:29:31;102374.03;;;9.73;75.11
29359;BME280;16347;53.232;6.556;2024-01-30T08:31:59;102380.94;;;9.77;74.94
29359;BME280;16347;53.232;6.556;2024-01-30T08:34:28;102386.19;;;9.68;74.92
29359;BME280;16347;53.232;6.556;2024-01-30T08:36:56;102383.25;;;9.71;74.92
29359;BME280;16347;53.232;6.556;2024-01-30T08:39:24;102392.34;;;9.59;75.57
29359;BME280;16347;53.232;6.556;2024-01-30T08:41:54;102389.28;;;9.63;75.06
29359;BME280;16347;53.232;6.556;2024-01-30T08:44:22;102390.13;;;9.88;74.78
29359;BME280;16347;53.232;6.556;2024-01-30T08:46:50;102374.69;;;9.88;74.33
29359;BME280;16347;53.232;6.556;2024-01-30T08:49:20;102379.22;;;10.00;73.99
29359;BME280;16347;53.232;6.556;2024-01-30T08:51:47;102383.88;;;9.98;73.88
29359;BME280;16347;53.232;6.556;2024-01-30T08:54:17;102388.44;;;9.98;74.05
29359;BME280;16347;53.232;6.556;2024-01-30T08:56:45;102386.25;;;10.03;74.46
29359;BME280;16347;53.232;6.556;2024-01-30T08:59:14;102384.78;;;10.10;74.13
29359;BME280;16347;53.232;6.556;2024-01-30T09:01:43;102389.84;;;10.03;74.45
29359;BME280;16347;53.232;6.556;2024-01-30T09:04:29;102388.31;;;9.99;74.53
29359;BME280;16347;53.232;6.556;2024-01-30T09:06:57;102395.22;;;10.16;74.14
29359;BME280;16347;53.232;6.556;2024-01-30T09:09:25;102398.44;;;10.21;73.65
29359;BME280;16347;53.232;6.556;2024-01-30T09:11:53;102401.78;;;10.24;73.55
29359;BME280;16347;53.232;6.556;2024-01-30T09:14:22;102398.91;;;10.15;73.72
29359;BME280;16347;53.232;6.556;2024-01-30T09:16:50;102397.06;;;10.15;73.92
29359;BME280;16347;53.232;6.556;2024-01-30T09:19:18;102403.25;;;10.17;73.65
29359;BME280;16347;53.232;6.556;2024-01-30T09:21:47;102407.47;;;10.21;73.80
29359;BME280;16347;53.232;6.556;2024-01-30T09:24:15;102403.28;;;10.28;73.65
29359;BME280;16347;53.232;6.556;2024-01-30T09:26:44;102405.50;;;10.23;74.55
29359;BME280;16347;53.232;6.556;2024-01-30T09:29:12;102401.78;;;10.24;75.07
29359;BME280;16347;53.232;6.556;2024-01-30T09:31:42;102401.47;;;10.40;74.37
29359;BME280;16347;53.232;6.556;2024-01-30T09:34:11;102405.50;;;10.23;75.11
29359;BME280;16347;53.232;6.556;2024-01-30T09:36:39;102405.53;;;10.35;74.89
29359;BME280;16347;53.232;6.556;2024-01-30T09:39:07;102404.06;;;10.42;75.15
29359;BME280;16347;53.232;6.556;2024-01-30T09:41:43;102405.84;;;10.54;74.32
29359;BME280;16347;53.232;6.556;2024-01-30T09:44:13;102412.88;;;10.56;74.62
29359;BME280;16347;53.232;6.556;2024-01-30T09:46:47;102414.34;;;10.49;74.67
29359;BME280;16347;53.232;6.556;2024-01-30T09:49:16;102386.06;;;10.63;74.52
29359;BME280;16347;53.232;6.556;2024-01-30T09:51:48;102408.66;;;10.52;75.10
29359;BME280;16347;53.232;6.556;2024-01-30T09:54:16;102409.81;;;10.72;74.33
29359;BME280;16347;53.232;6.556;2024-01-30T09:56:47;102405.50;;;10.80;74.69
29359;BME280;16347;53.232;6.556;2024-01-30T09:59:15;102402.38;;;10.63;75.29
29359;BME280;16347;53.232;6.556;2024-01-30T10:01:45;102402.25;;;10.75;75.48
29359;BME280;16347;53.232;6.556;2024-01-30T10:04:14;102411.94;;;10.79;75.52
29359;BME280;16347;53.232;6.556;2024-01-30T10:06:42;102404.88;;;10.88;75.56
29359;BME280;16347;53.232;6.556;2024-01-30T10:09:10;102401.16;;;10.89;75.61
29359;BME280;16347;53.232;6.556;2024-01-30T10:11:40;102395.22;;;11.06;75.17
29359;BME280;16347;53.232;6.556;2024-01-30T10:14:09;102387.53;;;11.11;75.27
29359;BME280;16347;53.232;6.556;2024-01-30T10:16:37;102390.16;;;11.13;75.33
29359;BME280;16347;53.232;6.556;2024-01-30T10:19:07;102383.59;;;11.15;75.22
29359;BME280;16347;53.232;6.556;2024-01-30T10:21:35;102389.91;;;11.16;75.08
29359;BME280;16347;53.232;6.556;2024-01-30T10:24:04;102391.75;;;11.15;75.26
29359;BME280;16347;53.232;6.556;2024-01-30T10:26:32;102390.38;;;11.32;75.46
29359;BME280;16347;53.232;6.556;2024-01-30T10:29:01;102397.19;;;11.26;75.70
29359;BME280;16347;53.232;6.556;2024-01-30T10:31:29;102402.13;;;11.32;75.14
29359;BME280;16347;53.232;6.556;2024-01-30T10:33:57;102388.41;;;11.34;75.10
29359;BME280;16347;53.232;6.556;2024-01-30T10:36:43;102405.47;;;11.36;74.72
29359;BME280;16347;53.232;6.556;2024-01-30T10:39:14;102411.53;;;11.40;74.69
29359;BME280;16347;53.232;6.556;2024-01-30T10:41:44;102416.97;;;11.28;75.03
29359;BME280;16347;53.232;6.556;2024-01-30T10:44:16;102412.03;;;11.22;75.25
29359;BME280;16347;53.232;6.556;2024-01-30T10:46:45;102405.63;;;11.23;75.06
29359;BME280;16347;53.232;6.556;2024-01-30T10:49:17;102404.25;;;11.29;75.07
29359;BME280;16347;53.232;6.556;2024-01-30T10:51:47;102395.34;;;11.27;75.04
29359;BME280;16347;53.232;6.556;2024-01-30T10:54:17;102403.38;;;11.40;75.11
29359;BME280;16347;53.232;6.556;2024-01-30T10:56:45;102412.78;;;11.36;74.58
29359;BME280;16347;53.232;6.556;2024-01-30T10:59:13;102395.59;;;11.24;75.07
29359;BME280;16347;53.232;6.556;2024-01-30T11:01:42;102404.34;;;11.39;75.06
29359;BME280;16347;53.232;6.556;2024-01-30T11:04:11;102416.97;;;11.28;74.96
29359;BME280;16347;53.232;6.556;2024-01-30T11:06:40;102413.41;;;11.06;76.31
29359;BME280;16347;53.232;6.556;2024-01-30T11:09:11;102408.59;;;11.09;76.42
29359;BME280;16347;53.232;6.556;2024-01-30T11:11:49;102421.94;;;11.12;75.96
29359;BME280;16347;53.232;6.556;2024-01-30T11:14:22;102410.22;;;11.01;76.52
29359;BME280;16347;53.232;6.556;2024-01-30T11:16:50;102406.00;;;11.08;76.17
29359;BME280;16347;53.232;6.556;2024-01-30T11:19:22;102405.38;;;11.15;76.00
29359;BME280;16347;53.232;6.556;2024-01-30T11:21:50;102408.44;;;11.33;75.37
29359;BME280;16347;53.232;6.556;2024-01-30T11:24:21;102406.13;;;11.17;75.45
29359;BME280;16347;53.232;6.556;2024-01-30T11:26:49;102418.97;;;11.26;74.94
29359;BME280;16347;53.232;6.556;2024-01-30T11:29:16;102400.66;;;11.28;74.59
29359;BME280;16347;53.232;6.556;2024-01-30T11:31:53;102407.00;;;11.07;75.03
29359;BME280;16347;53.232;6.556;2024-01-30T11:34:21;102419.34;;;11.00;74.96
29359;BME280;16347;53.232;6.556;2024-01-30T11:36:51;102413.78;;;11.01;74.46
29359;BME280;16347;53.232;6.556;2024-01-30T11:39:22;102411.53;;;10.73;74.86
29359;BME280;16347;53.232;6.556;2024-01-30T11:41:51;102424.53;;;10.69;74.97
29359;BME280;16347;53.232;6.556;2024-01-30T11:44:19;102406.34;;;10.92;74.37
29359;BME280;16347;53.232;6.556;2024-01-30T11:46:48;102430.47;;;10.86;74.52
29359;BME280;16347;53.232;6.556;2024-01-30T11:49:16;102422.78;;;10.68;74.63
29359;BME280;16347;53.232;6.556;2024-01-30T11:51:45;102409.44;;;10.76;74.70
29359;BME280;16347;53.232;6.556;2024-01-30T11:54:15;102422.66;;;10.70;74.80
29359;BME280;16347;53.232;6.556;2024-01-30T11:56:45;102411.81;;;10.81;74.43
29359;BME280;16347;53.232;6.556;2024-01-30T11:59:13;102419.59;;;10.86;74.06
29359;BME280;16347;53.232;6.556;2024-01-30T12:01:41;102412.91;;;10.78;73.83
29359;BME280;16347;53.232;6.556;2024-01-30T12:04:10;102422.34;;;10.97;73.63
29359;BME280;16347;53.232;6.556;2024-01-30T12:06:38;102416.03;;;11.07;73.36
29359;BME280;16347;53.232;6.556;2024-01-30T12:09:08;102421.84;;;11.14;72.61
29359;BME280;16347;53.232;6.556;2024-01-30T12:11:46;102427.50;;;11.22;72.10
29359;BME280;16347;53.232;6.556;2024-01-30T12:14:14;102419.34;;;11.00;72.05
29359;BME280;16347;53.232;6.556;2024-01-30T12:16:42;102429.63;;;10.74;72.09
29359;BME280;16347;53.232;6.556;2024-01-30T12:19:10;102425.84;;;10.53;72.97
29359;BME280;16347;53.232;6.556;2024-01-30T12:21:38;102425.25;;;10.71;72.63
29359;BME280;16347;53.232;6.556;2024-01-30T12:24:06;102430.06;;;10.57;72.75
29359;BME280;16347;53.232;6.556;2024-01-30T12:26:34;102433.28;;;10.51;73.15
29359;BME280;16347;53.232;6.556;2024-01-30T12:29:04;102423.75;;;10.56;73.06
29359;BME280;16347;53.232;6.556;2024-01-30T12:31:32;102426.25;;;10.81;72.23
29359;BME280;16347;53.232;6.556;2024-01-30T12:34:01;102422.41;;;10.62;72.70
29359;BME280;16347;53.232;6.556;2024-01-30T12:36:29;102432.69;;;10.69;72.55
29359;BME280;16347;53.232;6.556;2024-01-30T12:38:57;102423.50;;;10.59;72.48
29359;BME280;16347;53.232;6.556;2024-01-30T12:41:26;102432.16;;;10.64;72.34
29359;BME280;16347;53.232;6.556;2024-01-30T12:43:56;102419.19;;;10.57;72.54
29359;BME280;16347;53.232;6.556;2024-01-30T12:46:26;102440.03;;;10.45;72.15
29359;BME280;16347;53.232;6.556;2024-01-30T12:48:55;102440.94;;;10.22;72.40
29359;BME280;16347;53.232;6.556;2024-01-30T12:51:23;102429.19;;;10.21;72.57
29359;BME280;16347;53.232;6.556;2024-01-30T12:53:51;102459.16;;;10.09;73.83
29359;BME280;16347;53.232;6.556;2024-01-30T12:56:19;102433.19;;;10.05;73.91
29359;BME280;16347;53.232;6.556;2024-01-30T12:58:47;102436.84;;;10.16;73.61
29359;BME280;16347;53.232;6.556;2024-01-30T13:01:18;102427.88;;;10.03;73.98
29359;BME280;16347;53.232;6.556;2024-01-30T13:03:48;102421.69;;;10.25;73.76